Terminal Aerodrome Forecast
Issued by NWS

Home | Current Version | Previous Version | Text Only | Print | Product List | Glossary On
Versions: 1 2 3 4 5 6 7 8 9 10 11 12 13 14 15 16 17 18 19 20 21 22 23 24 25 26 27 28
000
FTUS44 KLIX 291517 AAA
TAFMCB
TAF AMD
KMCB 291517Z 2915/3012 17013KT P6SM FEW017 SCT030
     FM291800 16012KT P6SM SCT110
     FM292200 16012G20KT P6SM SCT025 BKN080
     FM300400 16011G19KT P6SM BKN010=

USA.gov is the U.S. government's official web portal to all federal, state and local government web resources and services.